Time;durP1;ratioP1;P1;durP2;ratioP2;P2;SDS_P1;SDS_P2;PMS_P1;PMS_P2;Temp;Humidity;BMP_temperature;BMP_pressure;BME280_temperature;BME280_humidity;BME280_pressure;Samples;Min_cycle;Max_cycle;Signal;HPM_P1;HPM_P2
2024/01/06 00:00:00;;;;;;;3.92;1.35;;;17.70;50.40;;;;;;5138060;27;45435;-66
2024/01/06 00:02:27;;;;;;;3.05;1.40;;;17.70;50.40;;;;;;5136360;27;47258;-66
2024/01/06 00:04:54;;;;;;;2.00;1.33;;;17.70;50.40;;;;;;5134835;27;45301;-67
2024/01/06 00:07:21;;;;;;;5.93;1.55;;;17.60;50.30;;;;;;5136302;27;45335;-68
2024/01/06 00:09:48;;;;;;;2.22;1.42;;;17.60;50.40;;;;;;5134869;27;45430;-67
2024/01/06 00:12:18;;;;;;;2.95;1.30;;;17.60;50.40;;;;;;5133570;27;46678;-66
2024/01/06 00:14:45;;;;;;;2.70;1.38;;;17.50;50.40;;;;;;5137597;27;45300;-66
2024/01/06 00:17:12;;;;;;;2.05;1.10;;;17.50;50.40;;;;;;5137935;27;45369;-65
2024/01/06 00:19:38;;;;;;;3.78;1.50;;;17.50;50.40;;;;;;5133110;27;45642;-66
2024/01/06 00:22:05;;;;;;;2.10;1.30;;;17.50;50.50;;;;;;5139722;27;45369;-66
2024/01/06 00:24:32;;;;;;;2.70;1.90;;;17.50;50.40;;;;;;5146663;27;45283;-66
2024/01/06 00:26:59;;;;;;;5.28;1.67;;;17.40;50.40;;;;;;5148925;27;45433;-66
2024/01/06 00:29:27;;;;;;;1.80;1.40;;;17.40;50.40;;;;;;5149689;27;45227;-66
2024/01/06 00:31:54;;;;;;;1.58;1.23;;;17.40;50.40;;;;;;5148999;27;46400;-66
2024/01/06 00:34:21;;;;;;;1.75;1.17;;;17.40;50.40;;;;;;5149376;27;45427;-66
2024/01/06 00:36:53;;;;;;;1.52;1.35;;;17.40;50.40;;;;;;5149003;27;45302;-68
2024/01/06 00:39:21;;;;;;;4.10;1.70;;;17.30;50.40;;;;;;5148502;27;45401;-67
2024/01/06 00:41:47;;;;;;;3.95;1.92;;;17.40;50.50;;;;;;5148274;27;45613;-66
2024/01/06 00:44:14;;;;;;;2.42;1.67;;;17.30;50.50;;;;;;5148469;27;45320;-66
2024/01/06 00:46:42;;;;;;;4.55;2.08;;;17.30;50.60;;;;;;5148583;27;45234;-66
2024/01/06 00:49:09;;;;;;;5.50;2.00;;;17.30;50.70;;;;;;5148984;27;45553;-67
2024/01/06 00:51:36;;;;;;;5.43;2.58;;;17.30;50.50;;;;;;5148491;27;46819;-66
2024/01/06 00:54:03;;;;;;;6.38;2.30;;;17.30;50.60;;;;;;5148323;27;45384;-67
2024/01/06 00:56:30;;;;;;;4.03;2.05;;;17.30;50.80;;;;;;5148676;27;45377;-67
2024/01/06 00:58:57;;;;;;;4.20;2.08;;;17.20;50.70;;;;;;5146182;27;45334;-66
2024/01/06 01:01:24;;;;;;;3.72;2.15;;;17.20;50.70;;;;;;5148642;27;45328;-67
2024/01/06 01:03:52;;;;;;;3.67;1.88;;;17.20;50.70;;;;;;5148723;27;45402;-67
2024/01/06 01:06:19;;;;;;;4.25;2.40;;;17.20;50.70;;;;;;5148780;27;45383;-67
2024/01/06 01:08:46;;;;;;;3.65;2.20;;;17.20;50.70;;;;;;5147741;27;45567;-67
2024/01/06 01:11:13;;;;;;;5.03;2.30;;;17.20;50.70;;;;;;5145015;27;45312;-67
2024/01/06 01:13:40;;;;;;;5.15;1.90;;;17.20;50.70;;;;;;5149525;27;45493;-68
2024/01/06 01:16:07;;;;;;;3.17;1.80;;;17.10;50.60;;;;;;5151804;27;45433;-66
2024/01/06 01:18:34;;;;;;;3.45;1.98;;;17.10;50.60;;;;;;5151735;27;45426;-66
2024/01/06 01:21:02;;;;;;;4.00;1.88;;;17.10;50.60;;;;;;5151241;27;46436;-66
2024/01/06 01:23:29;;;;;;;3.80;2.05;;;17.10;50.60;;;;;;5151406;27;45372;-67
2024/01/06 01:25:55;;;;;;;4.10;2.15;;;17.10;51.20;;;;;;5151873;27;45369;-67
2024/01/06 01:28:22;;;;;;;3.47;1.88;;;17.00;50.60;;;;;;5152246;27;45445;-66
2024/01/06 01:30:49;;;;;;;2.53;1.63;;;17.10;50.60;;;;;;5148966;27;46197;-66
2024/01/06 01:33:16;;;;;;;3.13;1.73;;;17.00;50.60;;;;;;5152040;27;45321;-67
2024/01/06 01:35:43;;;;;;;3.08;1.85;;;17.00;50.60;;;;;;5151899;27;45332;-67
2024/01/06 01:38:11;;;;;;;3.45;1.50;;;17.00;50.60;;;;;;5152231;27;45436;-66
2024/01/06 01:40:38;;;;;;;4.35;1.95;;;17.00;50.60;;;;;;5151430;27;46471;-66
2024/01/06 01:43:06;;;;;;;4.30;2.00;;;17.00;50.60;;;;;;5151970;27;45300;-66
2024/01/06 01:45:33;;;;;;;2.80;2.30;;;16.90;50.60;;;;;;5151712;27;45318;-66
2024/01/06 01:48:00;;;;;;;2.67;2.42;;;16.90;50.60;;;;;;5151688;27;45582;-67
2024/01/06 01:50:27;;;;;;;5.25;2.28;;;16.90;50.60;;;;;;5151230;27;45280;-68
2024/01/06 01:52:54;;;;;;;3.20;1.42;;;16.90;50.70;;;;;;5150568;27;45441;-67
2024/01/06 01:55:22;;;;;;;3.35;1.55;;;16.80;50.60;;;;;;5151475;27;45324;-67
2024/01/06 01:57:49;;;;;;;3.22;1.90;;;16.80;50.60;;;;;;5151497;27;45410;-67
2024/01/06 02:00:17;;;;;;;3.55;1.80;;;16.80;50.60;;;;;;5148367;27;46136;-67
2024/01/06 02:02:44;;;;;;;2.22;1.50;;;16.80;50.60;;;;;;5151432;27;45348;-67
2024/01/06 02:05:10;;;;;;;2.28;1.58;;;16.80;50.60;;;;;;5151247;27;45354;-66
2024/01/06 02:07:37;;;;;;;3.17;1.45;;;16.80;50.60;;;;;;5148691;27;45366;-66
2024/01/06 02:10:05;;;;;;;2.45;1.40;;;16.80;50.60;;;;;;5151159;27;47381;-66
2024/01/06 02:12:33;;;;;;;4.72;1.40;;;16.80;50.60;;;;;;5150889;27;45422;-66
2024/01/06 02:15:00;;;;;;;2.88;1.70;;;16.70;50.60;;;;;;5151075;27;45276;-66
2024/01/06 02:17:27;;;;;;;2.65;1.80;;;16.70;50.60;;;;;;5148329;27;45332;-67
2024/01/06 02:19:54;;;;;;;2.15;1.50;;;16.70;50.60;;;;;;5150811;27;46646;-67
2024/01/06 02:22:22;;;;;;;2.25;1.67;;;16.70;50.60;;;;;;5150696;27;45442;-67
2024/01/06 02:24:49;;;;;;;2.00;1.35;;;16.60;50.50;;;;;;5150105;27;45385;-66
2024/01/06 02:27:16;;;;;;;1.80;1.58;;;16.70;50.60;;;;;;5151382;27;45313;-66
2024/01/06 02:29:43;;;;;;;3.78;1.65;;;16.70;50.70;;;;;;5150609;27;45491;-67
2024/01/06 02:32:10;;;;;;;2.28;1.52;;;16.60;50.60;;;;;;5150809;27;45554;-66
2024/01/06 02:34:38;;;;;;;2.08;1.17;;;16.60;50.60;;;;;;5150546;27;45485;-67
2024/01/06 02:37:05;;;;;;;3.28;1.60;;;16.60;50.60;;;;;;5150168;27;45503;-67
2024/01/06 02:39:33;;;;;;;2.67;1.33;;;16.50;50.60;;;;;;5150355;27;46088;-66
2024/01/06 02:42:00;;;;;;;1.98;1.75;;;16.50;50.60;;;;;;5150509;27;45360;-66
2024/01/06 02:44:27;;;;;;;1.85;1.55;;;16.60;50.60;;;;;;5150691;27;45320;-66
2024/01/06 02:46:54;;;;;;;3.78;1.60;;;16.60;50.60;;;;;;5150569;27;45365;-66
2024/01/06 02:49:21;;;;;;;2.92;1.52;;;16.50;50.60;;;;;;5150518;27;46385;-67
2024/01/06 02:51:47;;;;;;;2.70;1.45;;;16.50;50.60;;;;;;5150698;27;45380;-66
2024/01/06 02:54:14;;;;;;;2.00;1.27;;;16.50;50.60;;;;;;5150508;27;45305;-67
2024/01/06 02:56:42;;;;;;;1.52;1.38;;;16.50;50.60;;;;;;5150917;27;45301;-67
2024/01/06 02:59:09;;;;;;;1.48;1.38;;;16.50;50.60;;;;;;5150013;27;46359;-67
2024/01/06 03:01:36;;;;;;;2.05;1.27;;;16.50;50.60;;;;;;5150348;27;45241;-66
2024/01/06 03:04:03;;;;;;;1.98;1.30;;;16.40;50.60;;;;;;5147150;27;45329;-66
2024/01/06 03:06:30;;;;;;;2.20;1.30;;;16.40;50.60;;;;;;5149852;27;45304;-67
2024/01/06 03:08:57;;;;;;;1.67;1.40;;;16.40;50.60;;;;;;5149879;27;46159;-66
2024/01/06 03:11:24;;;;;;;1.73;1.10;;;16.40;50.60;;;;;;5150277;27;45312;-67
2024/01/06 03:13:52;;;;;;;1.83;1.40;;;16.40;50.60;;;;;;5150265;27;45349;-67
2024/01/06 03:16:19;;;;;;;2.60;1.50;;;16.40;50.60;;;;;;5150122;27;45304;-67
2024/01/06 03:18:46;;;;;;;1.00;1.00;;;16.40;50.60;;;;;;5149548;27;46139;-66
2024/01/06 03:21:20;;;;;;;1.42;1.33;;;16.40;50.60;;;;;;5149329;27;45273;-66
2024/01/06 03:23:47;;;;;;;2.17;1.20;;;16.30;50.60;;;;;;5150071;27;45417;-66
2024/01/06 03:26:14;;;;;;;1.42;1.33;;;16.30;50.60;;;;;;5150056;27;45359;-66
2024/01/06 03:28:41;;;;;;;2.53;1.27;;;16.30;50.60;;;;;;5149626;27;46412;-66
2024/01/06 03:31:09;;;;;;;1.88;1.27;;;16.30;50.60;;;;;;5150090;27;45336;-67
2024/01/06 03:33:37;;;;;;;1.20;1.10;;;16.30;50.70;;;;;;5149738;27;45422;-66
2024/01/06 03:36:09;;;;;;;2.08;1.42;;;16.30;50.70;;;;;;5149994;27;45517;-67
2024/01/06 03:38:36;;;;;;;3.95;1.55;;;16.30;50.70;;;;;;5149431;27;46361;-67
2024/01/06 03:41:03;;;;;;;2.47;1.35;;;16.20;50.60;;;;;;5149108;27;45447;-66
2024/01/06 03:43:30;;;;;;;2.25;1.40;;;16.20;50.60;;;;;;5149444;27;45423;-66
2024/01/06 03:45:58;;;;;;;2.15;1.30;;;16.20;50.60;;;;;;5149680;27;45259;-66
2024/01/06 03:48:26;;;;;;;2.20;1.10;;;16.20;50.70;;;;;;5149493;27;45199;-66
2024/01/06 03:50:53;;;;;;;1.52;1.20;;;16.20;50.60;;;;;;5146682;27;45470;-66
2024/01/06 03:53:20;;;;;;;1.60;1.40;;;16.20;50.70;;;;;;5149521;27;45408;-66
2024/01/06 03:55:47;;;;;;;2.40;1.40;;;16.10;50.60;;;;;;5149483;27;45300;-67
2024/01/06 03:58:14;;;;;;;2.08;1.23;;;16.10;50.70;;;;;;5149561;27;45408;-67
2024/01/06 04:00:41;;;;;;;1.63;0.98;;;16.10;50.70;;;;;;5149231;27;45405;-67
2024/01/06 04:03:08;;;;;;;2.20;1.30;;;16.10;50.70;;;;;;5149451;27;45448;-67
2024/01/06 04:05:37;;;;;;;1.70;1.27;;;16.10;50.70;;;;;;5149107;27;45400;-67
2024/01/06 04:08:04;;;;;;;1.90;1.33;;;16.10;50.70;;;;;;5148257;27;46394;-66
2024/01/06 04:10:31;;;;;;;2.53;1.50;;;16.10;50.70;;;;;;5149105;27;45256;-66
2024/01/06 04:12:58;;;;;;;1.92;1.58;;;16.10;50.60;;;;;;5149110;27;45423;-66
2024/01/06 04:15:25;;;;;;;1.63;1.25;;;16.20;50.50;;;;;;5149087;27;45583;-66
2024/01/06 04:17:52;;;;;;;2.65;1.48;;;16.20;50.40;;;;;;5148884;27;46345;-66
2024/01/06 04:20:19;;;;;;;1.35;1.10;;;16.30;50.20;;;;;;5149066;27;45194;-66
2024/01/06 04:22:47;;;;;;;2.42;1.45;;;16.40;50.10;;;;;;5148940;27;45317;-66
2024/01/06 04:25:14;;;;;;;1.80;1.60;;;16.50;49.90;;;;;;5149241;27;45498;-66
2024/01/06 04:27:41;;;;;;;2.72;1.42;;;16.60;49.70;;;;;;5148742;27;46320;-66
2024/01/06 04:30:08;;;;;;;1.60;1.33;;;16.70;49.40;;;;;;5148919;27;45404;-66
2024/01/06 04:32:35;;;;;;;1.58;1.10;;;16.80;49.20;;;;;;5148884;27;45373;-66
2024/01/06 04:35:02;;;;;;;3.17;1.42;;;16.90;49.00;;;;;;5148908;27;45478;-66
2024/01/06 04:37:29;;;;;;;1.70;1.27;;;17.00;48.70;;;;;;5148458;27;45401;-67
2024/01/06 04:39:58;;;;;;;2.65;1.30;;;17.10;48.50;;;;;;5148094;27;45530;-67
2024/01/06 04:42:25;;;;;;;1.67;1.35;;;17.20;48.90;;;;;;5148698;27;45135;-68
2024/01/06 04:44:52;;;;;;;1.23;1.13;;;17.30;48.20;;;;;;5148759;27;45429;-66
2024/01/06 04:47:19;;;;;;;2.25;1.10;;;17.40;48.00;;;;;;5147719;27;46045;-66
2024/01/06 04:49:46;;;;;;;2.72;1.58;;;17.50;47.80;;;;;;5147628;27;45511;-66
2024/01/06 04:52:12;;;;;;;0.98;0.90;;;17.60;47.70;;;;;;5148547;27;45242;-67
2024/01/06 04:54:39;;;;;;;1.25;1.13;;;17.70;47.50;;;;;;5149046;27;45320;-66
2024/01/06 04:57:08;;;;;;;1.23;1.13;;;17.70;47.30;;;;;;5148295;27;45601;-66
2024/01/06 04:59:34;;;;;;;2.17;1.20;;;17.80;47.20;;;;;;5148307;27;45363;-66
2024/01/06 05:02:01;;;;;;;2.42;1.25;;;17.80;47.10;;;;;;5148570;27;45475;-66
2024/01/06 05:04:30;;;;;;;1.38;1.00;;;17.90;47.00;;;;;;5148522;27;45461;-66
2024/01/06 05:06:57;;;;;;;2.00;1.20;;;18.00;46.90;;;;;;5148229;27;45619;-66
2024/01/06 05:09:24;;;;;;;1.17;1.02;;;18.00;46.80;;;;;;5145562;27;45334;-67
2024/01/06 05:11:51;;;;;;;1.27;1.17;;;18.10;46.70;;;;;;5148290;27;45240;-66
2024/01/06 05:14:19;;;;;;;1.33;1.00;;;18.10;46.50;;;;;;5148278;27;45473;-66
2024/01/06 05:16:46;;;;;;;1.00;0.90;;;18.20;46.50;;;;;;5147840;27;46473;-67
2024/01/06 05:19:19;;;;;;;1.42;1.10;;;18.20;46.40;;;;;;5148024;27;45399;-67
2024/01/06 05:21:46;;;;;;;1.15;1.10;;;18.20;46.20;;;;;;5148203;27;45309;-67
2024/01/06 05:24:12;;;;;;;1.90;1.00;;;18.30;46.20;;;;;;5148454;27;45457;-67
2024/01/06 05:26:40;;;;;;;1.73;1.13;;;18.30;46.20;;;;;;5147867;27;46890;-68
2024/01/06 05:29:06;;;;;;;1.30;0.90;;;18.30;46.00;;;;;;5146267;27;45559;-67
2024/01/06 05:31:35;;;;;;;0.88;0.88;;;18.40;46.00;;;;;;5148245;27;45317;-67
2024/01/06 05:34:02;;;;;;;1.00;0.90;;;18.40;45.90;;;;;;5147986;27;45460;-66
2024/01/06 05:36:32;;;;;;;1.10;1.00;;;18.40;45.90;;;;;;5147598;27;46287;-66
2024/01/06 05:39:00;;;;;;;0.85;0.70;;;18.40;45.80;;;;;;5144752;27;45254;-66
2024/01/06 05:41:27;;;;;;;0.88;0.88;;;18.40;45.80;;;;;;5148214;27;45277;-67
2024/01/06 05:43:54;;;;;;;1.05;0.95;;;18.50;45.80;;;;;;5145097;27;45292;-66
2024/01/06 05:46:24;;;;;;;1.52;1.20;;;18.50;45.80;;;;;;5147644;27;46634;-67
2024/01/06 05:48:52;;;;;;;1.85;0.90;;;18.50;45.70;;;;;;5147626;27;45138;-66
2024/01/06 05:51:19;;;;;;;0.98;0.60;;;18.50;45.70;;;;;;5147878;27;45451;-66
2024/01/06 05:53:46;;;;;;;1.25;1.05;;;18.50;45.70;;;;;;5147767;27;45401;-67
2024/01/06 05:56:22;;;;;;;1.27;0.90;;;18.50;45.70;;;;;;5146389;27;46917;-67
2024/01/06 05:58:49;;;;;;;1.00;1.00;;;18.50;45.60;;;;;;5147753;27;45275;-66
2024/01/06 06:01:16;;;;;;;1.85;0.95;;;18.50;45.60;;;;;;5150138;27;45311;-66
2024/01/06 06:03:43;;;;;;;1.13;0.70;;;18.60;45.60;;;;;;5151459;27;45553;-67
2024/01/06 06:06:15;;;;;;;1.63;1.10;;;18.60;45.50;;;;;;5150960;27;46475;-66
2024/01/06 06:08:42;;;;;;;1.77;1.33;;;18.60;45.50;;;;;;5151374;27;45189;-67
2024/01/06 06:11:11;;;;;;;1.15;1.00;;;18.60;45.50;;;;;;5151132;27;45290;-67
2024/01/06 06:13:38;;;;;;;1.67;1.05;;;18.60;45.40;;;;;;5151650;27;45401;-66
2024/01/06 06:16:06;;;;;;;0.85;0.70;;;18.60;45.40;;;;;;5150629;27;45254;-67
2024/01/06 06:18:33;;;;;;;0.63;0.63;;;18.60;45.30;;;;;;5151428;27;45701;-68
2024/01/06 06:21:00;;;;;;;1.52;1.10;;;18.60;45.90;;;;;;5150793;27;45384;-67
2024/01/06 06:23:29;;;;;;;2.45;0.90;;;18.60;45.30;;;;;;5150983;27;45371;-67
2024/01/06 06:25:56;;;;;;;0.90;0.90;;;18.70;45.30;;;;;;5151041;27;47070;-67
2024/01/06 06:28:23;;;;;;;1.83;0.75;;;18.70;45.20;;;;;;5150929;27;45345;-67
2024/01/06 06:30:50;;;;;;;0.82;0.80;;;18.70;45.20;;;;;;5151032;27;45401;-67
2024/01/06 06:33:17;;;;;;;0.77;0.77;;;18.70;45.10;;;;;;5150719;27;45386;-67
2024/01/06 06:35:44;;;;;;;0.90;0.82;;;18.70;45.10;;;;;;5150814;27;46164;-67
2024/01/06 06:38:10;;;;;;;1.02;0.70;;;18.70;45.20;;;;;;5149215;27;45312;-67
2024/01/06 06:40:39;;;;;;;1.35;1.20;;;18.70;45.10;;;;;;5149243;27;45430;-67
2024/01/06 06:43:06;;;;;;;2.95;0.75;;;18.70;45.10;;;;;;5147952;27;45477;-67
2024/01/06 06:45:33;;;;;;;1.63;0.80;;;18.70;45.10;;;;;;5150380;27;46537;-68
2024/01/06 06:48:01;;;;;;;0.77;0.68;;;18.70;45.60;;;;;;5150117;27;45399;-68
2024/01/06 06:50:28;;;;;;;0.73;0.70;;;18.70;45.00;;;;;;5150504;27;45197;-67
2024/01/06 06:52:54;;;;;;;2.97;0.98;;;18.70;45.00;;;;;;5150596;27;45326;-68
2024/01/06 06:55:21;;;;;;;0.80;0.80;;;18.70;45.00;;;;;;5149940;27;46351;-67
2024/01/06 06:57:50;;;;;;;0.82;0.75;;;18.70;45.00;;;;;;5150485;27;45376;-67
2024/01/06 07:00:17;;;;;;;1.10;0.90;;;18.70;45.00;;;;;;5150624;27;45190;-67
2024/01/06 07:02:44;;;;;;;1.38;0.70;;;18.70;45.00;;;;;;5150330;27;45280;-67
2024/01/06 07:05:11;;;;;;;1.40;0.90;;;18.70;44.90;;;;;;5150046;27;47501;-67
2024/01/06 07:07:38;;;;;;;0.77;0.65;;;18.70;44.90;;;;;;5149842;27;45293;-67
2024/01/06 07:10:06;;;;;;;0.80;0.80;;;18.80;44.90;;;;;;5150119;27;45236;-67
2024/01/06 07:12:33;;;;;;;1.33;0.70;;;18.80;44.90;;;;;;5149930;27;45398;-67
2024/01/06 07:15:02;;;;;;;1.02;0.90;;;18.80;44.90;;;;;;5149708;27;46377;-68
2024/01/06 07:17:29;;;;;;;0.85;0.75;;;18.80;44.80;;;;;;5148590;27;45312;-68
2024/01/06 07:19:56;;;;;;;0.70;0.70;;;18.80;45.40;;;;;;5150265;27;45348;-67
2024/01/06 07:22:23;;;;;;;0.70;0.70;;;18.80;44.80;;;;;;5147438;27;45329;-67
2024/01/06 07:24:50;;;;;;;1.20;0.70;;;18.90;44.80;;;;;;5149609;27;46418;-67
2024/01/06 07:27:16;;;;;;;1.15;0.90;;;18.90;44.70;;;;;;5149914;27;45326;-67
2024/01/06 07:29:43;;;;;;;1.33;0.80;;;18.90;44.70;;;;;;5149667;27;45301;-67
2024/01/06 07:32:11;;;;;;;1.33;0.70;;;18.90;44.60;;;;;;5150125;27;45246;-67
2024/01/06 07:34:38;;;;;;;0.85;0.85;;;18.90;44.60;;;;;;5149517;27;46338;-68
2024/01/06 07:37:06;;;;;;;0.60;0.60;;;18.90;44.50;;;;;;5149620;27;45345;-67
2024/01/06 07:39:33;;;;;;;0.82;0.82;;;18.90;44.50;;;;;;5149608;27;45441;-67
2024/01/06 07:42:00;;;;;;;0.80;0.80;;;19.00;44.50;;;;;;5149748;27;45518;-67
2024/01/06 07:44:27;;;;;;;0.80;0.80;;;19.00;44.50;;;;;;5149430;27;46400;-68
2024/01/06 07:46:53;;;;;;;0.80;0.80;;;19.00;44.40;;;;;;5149763;27;45344;-67
2024/01/06 07:49:22;;;;;;;1.05;0.80;;;19.00;44.40;;;;;;5149483;27;45293;-67
2024/01/06 07:51:48;;;;;;;0.90;0.90;;;19.00;44.40;;;;;;5149185;27;45450;-67
2024/01/06 07:54:15;;;;;;;1.90;0.80;;;19.00;44.30;;;;;;5149075;27;46786;-67
2024/01/06 07:56:43;;;;;;;1.00;0.65;;;19.10;44.30;;;;;;5148884;27;45432;-67
2024/01/06 07:59:11;;;;;;;5.00;0.80;;;19.00;44.20;;;;;;5148671;27;45465;-68
2024/01/06 08:01:37;;;;;;;1.13;0.70;;;19.10;44.30;;;;;;5149447;27;45455;-67
2024/01/06 08:04:04;;;;;;;1.52;0.82;;;19.10;44.10;;;;;;5148894;27;46386;-68
2024/01/06 08:06:33;;;;;;;0.82;0.80;;;19.10;44.20;;;;;;5147439;27;45457;-67
2024/01/06 08:09:00;;;;;;;1.48;1.00;;;19.10;44.20;;;;;;5149127;27;45442;-67
2024/01/06 08:11:27;;;;;;;0.70;0.70;;;19.10;44.10;;;;;;5149312;27;45470;-68
2024/01/06 08:13:53;;;;;;;0.80;0.80;;;19.20;44.10;;;;;;5148903;27;47326;-68
2024/01/06 08:16:20;;;;;;;1.40;1.10;;;19.20;44.10;;;;;;5148406;27;45270;-67
2024/01/06 08:18:47;;;;;;;1.67;0.82;;;19.20;44.10;;;;;;5148943;27;45182;-67
2024/01/06 08:21:14;;;;;;;1.02;0.90;;;19.30;44.20;;;;;;5149431;27;45354;-67
2024/01/06 08:23:43;;;;;;;1.20;0.95;;;19.30;44.10;;;;;;5147728;27;45384;-67
2024/01/06 08:26:10;;;;;;;0.80;0.80;;;19.30;44.00;;;;;;5148599;27;45171;-67
2024/01/06 08:28:37;;;;;;;0.95;0.88;;;19.30;44.00;;;;;;5148844;27;45182;-68
2024/01/06 08:31:04;;;;;;;1.30;0.80;;;19.40;44.00;;;;;;5146400;27;45251;-67
2024/01/06 08:33:31;;;;;;;2.47;1.20;;;19.40;44.00;;;;;;5147445;27;46547;-67
2024/01/06 08:36:10;;;;;;;1.98;1.13;;;19.40;44.50;;;;;;5157025;27;45411;-66
2024/01/06 08:38:36;;;;;;;1.45;0.82;;;19.40;43.90;;;;;;5146933;27;45311;-66
2024/01/06 08:41:05;;;;;;;1.58;0.85;;;19.50;44.10;;;;;;5147183;27;45544;-73
2024/01/06 08:43:34;;;;;;;1.00;1.00;;;19.60;43.80;;;;;;5136875;27;46831;-68
2024/01/06 08:46:02;;;;;;;1.25;1.02;;;19.70;44.20;;;;;;5148659;27;45228;-67
2024/01/06 08:48:28;;;;;;;1.98;0.90;;;19.80;43.40;;;;;;5147353;27;45368;-66
2024/01/06 08:50:55;;;;;;;2.35;1.00;;;19.80;43.30;;;;;;5148550;27;45384;-67
2024/01/06 08:53:22;;;;;;;1.63;0.95;;;19.90;43.40;;;;;;5148304;27;45496;-67
2024/01/06 08:55:49;;;;;;;0.93;0.80;;;19.80;43.50;;;;;;5145243;27;45472;-67
2024/01/06 08:58:17;;;;;;;1.08;0.85;;;19.70;43.50;;;;;;5139234;27;45285;-65
2024/01/06 09:00:44;;;;;;;1.75;0.90;;;19.80;43.40;;;;;;5132244;27;45342;-67
2024/01/06 09:03:12;;;;;;;0.60;0.60;;;19.80;43.40;;;;;;5143008;27;46201;-66
2024/01/06 09:05:39;;;;;;;1.75;1.02;;;19.80;43.40;;;;;;5135085;27;45527;-67
2024/01/06 09:08:07;;;;;;;2.97;0.90;;;19.80;43.40;;;;;;5133330;27;45534;-67
2024/01/06 09:10:34;;;;;;;0.90;0.90;;;19.70;43.40;;;;;;5132878;27;45395;-67
2024/01/06 09:13:02;;;;;;;0.88;0.82;;;19.60;43.60;;;;;;5138331;27;46815;-67
2024/01/06 09:15:30;;;;;;;1.50;0.82;;;19.60;43.70;;;;;;5127622;27;45364;-67
2024/01/06 09:17:57;;;;;;;0.80;0.80;;;19.50;43.80;;;;;;5136231;27;45367;-67
2024/01/06 09:20:24;;;;;;;5.07;1.10;;;19.50;43.90;;;;;;5147141;27;45254;-67
2024/01/06 09:22:51;;;;;;;2.00;1.15;;;19.50;44.00;;;;;;5146850;27;46575;-67
2024/01/06 09:25:18;;;;;;;4.80;1.00;;;19.40;43.90;;;;;;5148567;27;45875;-67
2024/01/06 09:27:45;;;;;;;5.60;1.30;;;19.40;44.40;;;;;;5145743;27;45449;-67
2024/01/06 09:30:12;;;;;;;1.05;0.95;;;19.40;44.00;;;;;;5148516;27;45262;-67
2024/01/06 09:32:41;;;;;;;1.10;1.00;;;19.30;44.20;;;;;;5147935;27;46633;-67
2024/01/06 09:35:08;;;;;;;1.88;1.00;;;19.30;45.00;;;;;;5150572;27;45447;-67
2024/01/06 09:37:35;;;;;;;1.73;0.95;;;19.20;44.40;;;;;;5151623;27;45347;-67
2024/01/06 09:40:02;;;;;;;2.60;1.17;;;19.20;44.50;;;;;;5151652;27;45183;-67
2024/01/06 09:42:29;;;;;;;1.13;0.75;;;19.10;44.60;;;;;;5150411;27;46831;-66
2024/01/06 09:44:56;;;;;;;1.17;0.65;;;19.10;44.70;;;;;;5151704;27;45418;-67
2024/01/06 09:47:23;;;;;;;1.17;0.93;;;19.10;44.80;;;;;;5151820;27;45318;-67
2024/01/06 09:49:51;;;;;;;0.90;0.80;;;19.00;44.80;;;;;;5152403;27;45283;-67
2024/01/06 09:52:21;;;;;;;1.85;1.10;;;19.00;44.80;;;;;;5151435;27;45274;-67
2024/01/06 09:54:52;;;;;;;0.80;0.80;;;19.10;44.70;;;;;;5141257;27;45475;-67
2024/01/06 09:57:19;;;;;;;0.80;0.80;;;19.10;44.70;;;;;;5133119;27;45228;-67
2024/01/06 09:59:47;;;;;;;2.85;1.17;;;19.10;44.50;;;;;;5152062;27;45434;-66
2024/01/06 10:02:15;;;;;;;0.85;0.80;;;19.20;44.40;;;;;;5151104;27;47110;-67
2024/01/06 10:04:43;;;;;;;1.17;0.77;;;19.20;44.40;;;;;;5150891;27;45220;-67
2024/01/06 10:07:13;;;;;;;1.45;0.70;;;19.30;44.30;;;;;;5149394;27;45377;-67
2024/01/06 10:09:41;;;;;;;0.80;0.77;;;19.30;44.10;;;;;;5151048;27;45426;-66
2024/01/06 10:12:09;;;;;;;1.30;0.98;;;19.30;44.00;;;;;;5149814;27;45306;-66
2024/01/06 10:14:36;;;;;;;0.88;0.63;;;19.40;43.90;;;;;;5148340;27;45384;-68
2024/01/06 10:17:03;;;;;;;0.98;0.98;;;19.40;43.80;;;;;;5139325;27;45384;-68
2024/01/06 10:19:30;;;;;;;1.38;0.80;;;19.50;43.80;;;;;;5148142;27;45487;-68
2024/01/06 10:22:00;;;;;;;0.70;0.70;;;19.50;43.70;;;;;;5149505;27;46773;-68
2024/01/06 10:24:29;;;;;;;0.90;0.90;;;19.50;43.60;;;;;;5151383;27;45417;-68
2024/01/06 10:26:56;;;;;;;0.80;0.80;;;19.50;43.60;;;;;;5151087;27;45309;-68
2024/01/06 10:29:23;;;;;;;0.85;0.77;;;19.60;43.60;;;;;;5151343;27;45183;-68
2024/01/06 10:31:51;;;;;;;0.98;0.80;;;19.60;43.40;;;;;;5151025;27;46495;-67
2024/01/06 10:34:19;;;;;;;1.83;0.85;;;19.60;43.40;;;;;;5150741;27;45379;-68
2024/01/06 10:36:52;;;;;;;0.60;0.60;;;19.60;43.40;;;;;;5150792;27;45218;-68
2024/01/06 10:39:19;;;;;;;1.17;1.00;;;19.60;43.40;;;;;;5150728;27;45477;-68
2024/01/06 10:41:49;;;;;;;1.60;0.70;;;19.70;43.30;;;;;;5150398;27;45369;-68
2024/01/06 10:44:15;;;;;;;0.60;0.60;;;19.70;43.30;;;;;;5150612;27;45360;-68
2024/01/06 10:46:42;;;;;;;0.85;0.80;;;19.70;43.30;;;;;;5149595;27;45379;-68
2024/01/06 10:49:10;;;;;;;1.75;0.70;;;19.70;43.20;;;;;;5150647;27;45410;-68
2024/01/06 10:51:38;;;;;;;0.70;0.68;;;19.70;43.20;;;;;;5150453;27;45498;-68
2024/01/06 10:54:05;;;;;;;1.05;0.85;;;19.70;43.10;;;;;;5150449;27;45313;-68
2024/01/06 10:56:32;;;;;;;2.42;1.00;;;19.80;43.10;;;;;;5149376;27;45428;-68
2024/01/06 10:59:00;;;;;;;0.77;0.77;;;19.80;43.80;;;;;;5150882;27;45356;-67
2024/01/06 11:01:27;;;;;;;1.10;0.93;;;19.80;43.10;;;;;;5150208;27;45313;-68
2024/01/06 11:03:54;;;;;;;1.23;0.73;;;19.80;43.20;;;;;;5150178;27;45216;-68
2024/01/06 11:06:21;;;;;;;0.77;0.70;;;19.80;43.20;;;;;;5150285;27;45320;-68
2024/01/06 11:08:51;;;;;;;2.38;0.80;;;19.70;43.20;;;;;;5150220;27;45384;-68
2024/01/06 11:11:18;;;;;;;0.80;0.75;;;19.70;43.30;;;;;;5147532;27;46173;-68
2024/01/06 11:13:45;;;;;;;0.95;0.82;;;19.70;43.30;;;;;;5150173;27;45177;-68
2024/01/06 11:16:14;;;;;;;0.95;0.70;;;19.60;43.40;;;;;;5150395;27;45760;-69
2024/01/06 11:18:42;;;;;;;1.20;0.90;;;19.60;43.40;;;;;;5149926;27;45254;-68
2024/01/06 11:21:17;;;;;;;0.82;0.82;;;19.60;43.60;;;;;;5150030;27;46537;-68
2024/01/06 11:23:44;;;;;;;1.55;0.90;;;19.60;43.60;;;;;;5149843;27;45205;-68
2024/01/06 11:26:11;;;;;;;0.55;0.55;;;19.50;43.60;;;;;;5150099;27;45314;-68
2024/01/06 11:28:44;;;;;;;2.30;0.70;;;19.50;43.70;;;;;;5147395;27;45406;-68
2024/01/06 11:31:13;;;;;;;0.63;0.60;;;19.40;43.70;;;;;;5149732;27;46408;-68
2024/01/06 11:33:42;;;;;;;0.70;0.70;;;19.40;43.80;;;;;;5149800;27;45444;-68
2024/01/06 11:36:10;;;;;;;1.13;0.80;;;19.40;43.90;;;;;;5149447;27;45266;-68
2024/01/06 11:38:39;;;;;;;1.92;0.93;;;19.30;43.90;;;;;;5150037;27;45520;-68
2024/01/06 11:41:07;;;;;;;1.27;0.82;;;19.30;44.00;;;;;;5149209;27;46704;-68
2024/01/06 11:43:35;;;;;;;1.00;0.70;;;19.30;44.00;;;;;;5149632;27;45259;-68
2024/01/06 11:46:02;;;;;;;1.08;0.70;;;19.30;44.10;;;;;;5149380;27;45361;-68
2024/01/06 11:48:32;;;;;;;0.63;0.63;;;19.30;44.20;;;;;;5149460;27;45356;-68
2024/01/06 11:50:59;;;;;;;1.80;0.90;;;19.20;44.20;;;;;;5148998;27;46357;-68
2024/01/06 11:53:27;;;;;;;0.60;0.60;;;19.20;44.30;;;;;;5149602;27;45198;-68
2024/01/06 11:55:54;;;;;;;0.52;0.50;;;19.20;44.90;;;;;;5149806;27;45245;-68
2024/01/06 11:58:21;;;;;;;0.80;0.80;;;19.10;44.40;;;;;;5148019;27;45522;-67
2024/01/06 12:00:56;;;;;;;0.90;0.68;;;19.10;44.50;;;;;;5144575;27;45467;-67
2024/01/06 12:03:23;;;;;;;1.23;0.70;;;19.10;44.60;;;;;;5149481;27;45371;-68
2024/01/06 12:06:05;;;;;;;2.28;1.10;;;19.10;44.60;;;;;;5149060;27;45282;-68
2024/01/06 12:08:33;;;;;;;0.95;0.70;;;19.10;44.60;;;;;;5148860;27;45425;-68
2024/01/06 12:11:03;;;;;;;3.55;1.00;;;19.20;44.50;;;;;;5148537;27;46398;-70
2024/01/06 12:13:30;;;;;;;2.40;0.70;;;19.30;44.50;;;;;;5148491;27;45372;-67
2024/01/06 12:15:57;;;;;;;1.88;0.90;;;19.30;44.40;;;;;;5148852;27;45338;-67
2024/01/06 12:18:24;;;;;;;0.65;0.60;;;19.40;44.30;;;;;;5149188;27;45531;-67
2024/01/06 12:20:50;;;;;;;3.63;1.08;;;19.50;44.10;;;;;;5148064;27;45303;-67
2024/01/06 12:23:27;;;;;;;4.18;1.20;;;19.50;43.90;;;;;;5138021;27;45483;-68
2024/01/06 12:25:54;;;;;;;1.50;0.82;;;19.60;43.90;;;;;;5148156;27;45243;-67
2024/01/06 12:28:20;;;;;;;0.80;0.80;;;19.70;43.70;;;;;;5148530;27;45468;-65
2024/01/06 12:30:47;;;;;;;3.35;1.05;;;19.70;43.70;;;;;;5148556;27;46458;-68
2024/01/06 12:33:14;;;;;;;2.10;0.80;;;19.80;43.70;;;;;;5144060;27;45189;-65
2024/01/06 12:35:42;;;;;;;21.15;1.60;;;19.80;43.60;;;;;;5145102;27;45239;-65
2024/01/06 12:38:09;;;;;;;5.00;0.98;;;19.80;43.50;;;;;;5148299;27;45361;-68
2024/01/06 12:40:38;;;;;;;2.58;0.70;;;19.90;43.50;;;;;;5150896;27;45508;-66
2024/01/06 12:43:07;;;;;;;5.03;0.80;;;20.00;43.40;;;;;;5151555;27;45324;-66
2024/01/06 12:45:34;;;;;;;5.72;0.90;;;20.00;43.40;;;;;;5149246;27;45369;-70
2024/01/06 12:48:01;;;;;;;5.07;1.00;;;20.10;43.40;;;;;;5149414;27;45409;-70